Time;durP1;ratioP1;P1;durP2;ratioP2;P2;SDS_P1;SDS_P2;PMS_P1;PMS_P2;Temp;Humidity;BMP_temperature;BMP_pressure;BME280_temperature;BME280_humidity;BME280_pressure;Samples;Min_cycle;Max_cycle;Signal;HPM_P1;HPM_P2
2022/07/23 00:00:05;;;;;;;476.47;430.70;;;;;;;26.31;54.27;99671.09;280305;34;6288;-74
2022/07/23 00:00:16;;;;;;;476.38;430.98;;;;;;;26.29;54.57;99669.56;283581;34;960;-74
2022/07/23 00:00:27;;;;;;;473.33;428.13;;;;;;;26.28;54.45;99667.88;279057;35;7547;-74
2022/07/23 00:00:37;;;;;;;470.20;425.13;;;;;;;26.29;54.30;99664.19;278069;34;8359;-76
2022/07/23 00:00:48;;;;;;;467.70;422.70;;;;;;;26.30;54.38;99668.56;278764;35;1634;-75
2022/07/23 00:00:58;;;;;;;468.05;422.65;;;;;;;26.29;54.41;99664.19;277872;35;9993;-75
2022/07/23 00:01:08;;;;;;;472.57;426.83;;;;;;;26.30;54.17;99671.22;276738;35;10696;-75
2022/07/23 00:01:19;;;;;;;474.07;427.90;;;;;;;26.30;54.54;99664.03;274175;35;7878;-75
2022/07/23 00:01:30;;;;;;;474.38;428.48;;;;;;;26.30;54.31;99666.72;275645;35;2381;-75
2022/07/23 00:01:41;;;;;;;471.90;426.08;;;;;;;26.31;54.67;99663.06;272013;36;8109;-75
2022/07/23 00:03:26;;;;;;;413.03;360.99;;;;;;;26.24;55.60;99677.25;2496877;27;21049;-74
2022/07/23 00:03:36;;;;;;;466.20;420.17;;;;;;;26.25;55.29;99676.25;351435;28;1245;-74
2022/07/23 00:03:47;;;;;;;475.27;429.10;;;;;;;26.26;55.66;99681.44;351710;28;813;-74
2022/07/23 00:03:57;;;;;;;474.57;429.00;;;;;;;26.24;55.72;99669.19;348819;28;1349;-75
2022/07/23 00:04:08;;;;;;;467.40;422.02;;;;;;;26.25;55.63;99669.03;347507;28;857;-75
2022/07/23 00:04:18;;;;;;;464.48;419.48;;;;;;;26.24;55.76;99682.63;347449;28;1283;-75
2022/07/23 00:04:29;;;;;;;463.00;417.77;;;;;;;26.23;55.59;99675.56;347383;28;1233;-75
2022/07/23 00:04:39;;;;;;;467.80;422.60;;;;;;;26.22;56.07;99679.25;347228;28;1861;-74
2022/07/23 00:04:49;;;;;;;471.80;426.65;;;;;;;26.19;56.41;99675.88;347386;28;1175;-74
2022/07/23 00:05:00;;;;;;;472.77;427.67;;;;;;;26.14;56.78;99678.22;347771;28;1522;-74
2022/07/23 00:05:10;;;;;;;471.95;426.60;;;;;;;26.14;56.66;99678.22;350285;28;954;-74
2022/07/23 00:05:21;;;;;;;471.77;426.37;;;;;;;26.16;56.26;99673.53;348744;28;1208;-74
2022/07/23 00:05:31;;;;;;;470.38;425.10;;;;;;;26.16;56.67;99675.38;348879;28;930;-74
2022/07/23 00:05:42;;;;;;;472.17;427.07;;;;;;;26.16;56.96;99667.31;348897;28;946;-74
2022/07/23 00:05:52;;;;;;;473.33;428.15;;;;;;;26.14;57.21;99672.00;349914;28;1972;-74
2022/07/23 00:06:03;;;;;;;475.07;429.83;;;;;;;26.11;57.34;99677.69;345471;28;5051;-75
2022/07/23 00:06:13;;;;;;;473.70;428.30;;;;;;;26.11;57.40;99681.22;347472;28;2882;-75
2022/07/23 00:06:24;;;;;;;475.03;429.50;;;;;;;26.11;57.00;99673.16;350138;28;2090;-75
2022/07/23 00:06:34;;;;;;;480.75;435.23;;;;;;;26.12;57.00;99680.22;348859;28;2691;-75
2022/07/23 00:06:45;;;;;;;485.35;439.67;;;;;;;26.13;57.06;99676.53;347336;28;1989;-75
2022/07/23 00:06:55;;;;;;;481.93;436.43;;;;;;;26.14;57.19;99672.84;348924;28;944;-75
2022/07/23 00:07:06;;;;;;;480.83;435.43;;;;;;;26.13;57.15;99676.53;348781;28;919;-75
2022/07/23 00:07:16;;;;;;;479.33;434.35;;;;;;;26.16;56.99;99676.19;349886;28;1476;-74
2022/07/23 00:07:27;;;;;;;482.08;437.10;;;;;;;26.16;57.10;99678.03;347573;28;1422;-74
2022/07/23 00:07:37;;;;;;;481.67;436.67;;;;;;;26.18;57.22;99678.72;348600;28;1599;-74
2022/07/23 00:07:48;;;;;;;475.08;429.95;;;;;;;26.18;56.98;99674.19;346058;28;1533;-74
2022/07/23 00:07:58;;;;;;;470.33;425.33;;;;;;;26.21;57.00;99677.56;342139;28;1623;-74
2022/07/23 00:08:09;;;;;;;468.10;423.00;;;;;;;26.22;56.82;99679.25;344578;28;987;-74
2022/07/23 00:08:19;;;;;;;473.55;428.35;;;;;;;26.23;56.80;99675.56;347451;28;1223;-74
2022/07/23 00:08:30;;;;;;;481.75;436.27;;;;;;;26.25;56.68;99684.28;350350;28;910;-74
2022/07/23 00:08:40;;;;;;;484.23;438.67;;;;;;;26.26;56.53;99677.94;349206;28;942;-74
2022/07/23 00:08:51;;;;;;;486.88;440.90;;;;;;;26.23;56.64;99678.25;346922;28;1232;-74
2022/07/23 00:09:01;;;;;;;473.23;427.27;;;;;;;26.19;56.90;99680.41;348367;28;1316;-74
2022/07/23 00:09:12;;;;;;;470.40;424.60;;;;;;;26.15;56.99;99673.69;347469;28;1346;-74
2022/07/23 00:09:22;;;;;;;470.23;424.97;;;;;;;26.12;57.19;99674.84;345820;28;1496;-74
2022/07/23 00:09:33;;;;;;;486.10;440.77;;;;;;;26.10;57.15;99670.63;347846;28;985;-74
2022/07/23 00:09:43;;;;;;;484.45;438.92;;;;;;;26.10;57.08;99681.38;348778;28;1373;-74
2022/07/23 00:09:54;;;;;;;483.25;437.58;;;;;;;26.11;56.69;99680.38;347319;28;1272;-74
2022/07/23 00:10:04;;;;;;;475.17;429.63;;;;;;;26.11;56.90;99678.53;344527;28;1289;-74
2022/07/23 00:10:15;;;;;;;473.95;428.63;;;;;;;26.13;57.05;99676.53;344588;28;1190;-74
2022/07/23 00:10:25;;;;;;;463.40;418.33;;;;;;;26.16;57.19;99684.25;344819;28;838;-74
2022/07/23 00:10:36;;;;;;;463.27;418.20;;;;;;;26.17;56.86;99682.41;343297;28;1297;-74
2022/07/23 00:10:46;;;;;;;467.30;422.17;;;;;;;26.15;57.20;99679.88;341580;28;1998;-75
2022/07/23 00:10:57;;;;;;;471.65;426.45;;;;;;;26.15;56.63;99685.25;344344;28;867;-75
2022/07/23 00:11:07;;;;;;;471.80;426.70;;;;;;;26.14;56.85;99683.56;345574;28;1707;-75
2022/07/23 00:11:17;;;;;;;471.40;426.00;;;;;;;26.10;56.91;99679.53;342021;28;1658;-75
2022/07/23 00:11:28;;;;;;;467.53;422.43;;;;;;;26.11;56.79;99683.06;340824;29;874;-75
2022/07/23 00:11:38;;;;;;;469.63;424.52;;;;;;;26.09;57.01;99677.84;344158;28;1398;-75
2022/07/23 00:11:49;;;;;;;475.90;430.70;;;;;;;26.10;56.78;99686.72;341221;28;1216;-75
2022/07/23 00:11:59;;;;;;;483.80;438.20;;;;;;;26.09;56.71;99680.53;340718;29;1775;-75
2022/07/23 00:12:09;;;;;;;483.10;437.65;;;;;;;26.08;57.06;99676.16;336899;29;1025;-75
2022/07/23 00:12:20;;;;;;;479.50;434.10;;;;;;;26.09;56.86;99677.00;337801;29;1986;-75
2022/07/23 00:12:31;;;;;;;479.27;433.90;;;;;;;26.08;56.90;99684.22;338297;29;869;-74
2022/07/23 00:12:41;;;;;;;474.47;429.30;;;;;;;26.11;57.25;99683.06;338002;29;1465;-74
2022/07/23 00:12:51;;;;;;;471.77;426.73;;;;;;;26.12;56.89;99685.56;334797;29;1378;-74
2022/07/23 00:13:02;;;;;;;471.17;426.13;;;;;;;26.13;56.80;99681.88;336214;29;1758;-74
2022/07/23 00:13:12;;;;;;;480.60;435.08;;;;;;;26.14;56.93;99680.88;331807;29;1026;-74
2022/07/23 00:13:23;;;;;;;480.03;434.43;;;;;;;26.14;56.72;99675.53;328510;29;1993;-74
2022/07/23 00:13:33;;;;;;;475.60;430.10;;;;;;;26.15;56.85;99679.88;325664;30;1706;-74
2022/07/23 00:13:44;;;;;;;475.47;430.23;;;;;;;26.16;56.68;99681.56;328476;30;3667;-74
2022/07/23 00:13:54;;;;;;;481.85;436.70;;;;;;;26.15;56.85;99676.38;328425;29;4746;-74
2022/07/23 00:14:05;;;;;;;481.40;436.27;;;;;;;26.16;57.14;99680.72;330392;29;2063;-75
2022/07/23 00:14:15;;;;;;;477.52;432.50;;;;;;;26.16;57.02;99689.63;327936;29;2381;-75
2022/07/23 00:14:26;;;;;;;471.50;426.47;;;;;;;26.15;56.73;99685.25;327941;30;3235;-75
2022/07/23 00:14:36;;;;;;;477.15;431.98;;;;;;;26.18;56.92;99679.56;328824;29;1733;-75
2022/07/23 00:14:46;;;;;;;480.50;435.13;;;;;;;26.16;57.21;99678.88;331290;29;2139;-75
2022/07/23 00:14:57;;;;;;;481.67;436.40;;;;;;;26.08;57.37;99684.22;333591;29;1941;-74
2022/07/23 00:15:08;;;;;;;482.15;436.92;;;;;;;26.06;57.53;99683.53;329086;30;1258;-74
2022/07/23 00:15:18;;;;;;;485.15;439.58;;;;;;;26.06;57.48;99680.84;332260;29;2227;-74
2022/07/23 00:15:29;;;;;;;483.53;438.10;;;;;;;26.04;57.37;99685.53;331811;29;1040;-74
2022/07/23 00:15:39;;;;;;;477.75;432.10;;;;;;;26.05;57.62;99679.16;328832;29;2185;-74
2022/07/23 00:15:50;;;;;;;480.20;434.53;;;;;;;26.05;57.66;99679.16;328595;29;2466;-74
2022/07/23 00:16:00;;;;;;;483.60;437.77;;;;;;;26.06;57.62;99675.47;327722;29;3068;-74
2022/07/23 00:16:10;;;;;;;482.77;437.23;;;;;;;26.06;57.73;99675.47;328080;30;1272;-74
2022/07/23 00:16:21;;;;;;;474.70;429.45;;;;;;;26.06;57.65;99677.31;329155;29;2768;-75
2022/07/23 00:16:31;;;;;;;469.73;424.63;;;;;;;26.04;57.65;99677.47;326131;30;2783;-75
2022/07/23 00:16:42;;;;;;;474.83;429.77;;;;;;;26.05;57.87;99678.31;324639;30;913;-75
2022/07/23 00:16:52;;;;;;;477.52;432.38;;;;;;;26.06;57.83;99675.47;324182;30;1781;-75
2022/07/23 00:17:02;;;;;;;481.77;436.30;;;;;;;26.07;57.69;99677.16;323241;30;1304;-75
2022/07/23 00:17:13;;;;;;;483.00;437.52;;;;;;;26.06;57.97;99680.84;324226;30;1597;-75
2022/07/23 00:17:23;;;;;;;485.70;440.20;;;;;;;26.07;57.63;99681.69;326294;30;1999;-76
2022/07/23 00:17:34;;;;;;;486.53;441.10;;;;;;;26.07;57.84;99677.16;324353;30;2933;-76
2022/07/23 00:17:44;;;;;;;489.25;443.67;;;;;;;26.07;57.71;99682.53;326784;30;866;-76
2022/07/23 00:17:54;;;;;;;487.03;441.50;;;;;;;26.08;57.89;99680.69;318127;31;861;-75
2022/07/23 00:18:05;;;;;;;489.27;443.65;;;;;;;26.08;57.85;99678.00;318328;30;3235;-75
2022/07/23 00:18:15;;;;;;;486.73;441.13;;;;;;;26.06;57.42;99680.84;318075;30;3183;-75
2022/07/23 00:18:25;;;;;;;488.60;442.83;;;;;;;26.09;57.77;99685.91;319773;30;932;-75
2022/07/23 00:18:36;;;;;;;489.50;443.90;;;;;;;26.09;57.95;99674.31;318055;31;3628;-75
2022/07/23 00:18:46;;;;;;;483.77;438.50;;;;;;;26.08;57.97;99673.47;316975;31;3304;-75
2022/07/23 00:18:57;;;;;;;478.27;433.20;;;;;;;26.07;57.87;99676.31;315083;31;1312;-75
2022/07/23 00:19:07;;;;;;;466.40;421.53;;;;;;;26.07;57.96;99682.53;313448;31;2428;-75
2022/07/23 00:19:17;;;;;;;464.55;419.63;;;;;;;26.06;57.81;99675.47;313695;31;2342;-75
2022/07/23 00:19:28;;;;;;;463.23;418.53;;;;;;;26.06;57.98;99680.00;313976;31;1310;-75
2022/07/23 00:19:39;;;;;;;471.73;426.77;;;;;;;26.07;58.10;99682.53;312141;31;3049;-75
2022/07/23 00:19:49;;;;;;;477.77;432.47;;;;;;;26.08;57.99;99684.22;308140;31;3401;-75
2022/07/23 00:20:00;;;;;;;484.83;439.08;;;;;;;26.09;57.79;99680.53;306777;31;3879;-75
2022/07/23 00:20:10;;;;;;;487.70;441.90;;;;;;;26.07;57.79;99679.84;310629;31;1105;-75
2022/07/23 00:20:21;;;;;;;489.60;443.52;;;;;;;26.06;58.26;99680.00;308988;31;4212;-75
2022/07/23 00:20:31;;;;;;;481.92;435.95;;;;;;;26.04;58.07;99674.78;309263;31;4377;-75
2022/07/23 00:20:42;;;;;;;473.33;427.53;;;;;;;26.04;58.21;99682.00;308304;32;1369;-75
2022/07/23 00:20:52;;;;;;;471.07;425.60;;;;;;;26.03;58.34;99678.47;307138;31;4703;-75
2022/07/23 00:21:03;;;;;;;476.08;430.73;;;;;;;26.02;58.15;99684.84;305840;32;4780;-75
2022/07/23 00:21:14;;;;;;;481.80;436.15;;;;;;;26.00;58.37;99676.13;304211;32;1006;-75
2022/07/23 00:21:24;;;;;;;477.48;432.00;;;;;;;26.00;58.26;99681.47;302938;32;3643;-75
2022/07/23 00:21:35;;;;;;;483.57;437.93;;;;;;;25.98;58.37;99677.31;298644;32;3524;-75
2022/07/23 00:21:45;;;;;;;483.30;438.00;;;;;;;25.98;58.24;99678.16;295042;32;4440;-75
2022/07/23 00:21:55;;;;;;;481.83;436.52;;;;;;;25.96;58.35;99680.16;299409;32;942;-75
2022/07/23 00:22:06;;;;;;;483.60;438.13;;;;;;;25.97;58.47;99683.66;294336;33;5026;-75
2022/07/23 00:22:16;;;;;;;482.80;437.25;;;;;;;25.94;58.62;99679.47;293948;33;5602;-75
2022/07/23 00:22:28;;;;;;;485.67;440.10;;;;;;;25.82;58.46;99678.03;294100;33;915;-75
2022/07/23 00:22:52;;;;;;;480.40;434.80;;;;;;;25.78;58.79;99677.53;289137;33;6395;-75
2022/07/23 00:23:02;;;;;;;490.02;444.17;;;;;;;25.75;59.14;99677.00;287837;33;6628;-75
2022/07/23 00:23:12;;;;;;;493.87;447.83;;;;;;;25.78;58.92;99679.38;288802;34;2625;-75
2022/07/23 00:23:24;;;;;;;499.43;452.97;;;;;;;25.79;58.88;99678.38;283737;34;6890;-75
2022/07/23 00:23:35;;;;;;;498.45;452.35;;;;;;;25.81;58.96;99681.72;284565;34;4787;-75
2022/07/23 00:23:45;;;;;;;495.88;450.08;;;;;;;25.81;58.84;99677.22;286374;34;5138;-75
2022/07/23 00:23:56;;;;;;;488.00;442.53;;;;;;;25.82;58.63;99683.41;283502;34;1291;-75
2022/07/23 00:24:06;;;;;;;490.10;444.52;;;;;;;25.82;58.60;99678.03;282997;34;6914;-75
2022/07/23 00:24:16;;;;;;;495.40;449.80;;;;;;;25.80;58.54;99680.03;284170;34;7335;-75
2022/07/23 00:24:27;;;;;;;499.27;453.47;;;;;;;25.80;58.60;99685.41;287667;34;813;-75
2022/07/23 00:24:37;;;;;;;493.05;447.40;;;;;;;25.81;58.48;99679.03;284472;34;7703;-75
2022/07/23 00:24:47;;;;;;;491.13;445.43;;;;;;;25.82;58.49;99686.09;281509;34;8568;-75
2022/07/23 00:24:58;;;;;;;492.05;446.40;;;;;;;25.83;58.19;99679.72;281067;35;1938;-75
2022/07/23 00:25:08;;;;;;;496.67;450.63;;;;;;;25.83;58.17;99674.38;282541;34;8380;-75
2022/07/23 00:25:21;;;;;;;494.88;448.70;;;;;;;25.83;58.30;99682.41;280081;34;8759;-75
2022/07/23 00:25:31;;;;;;;494.27;448.13;;;;;;;25.84;57.96;99684.09;283116;34;8559;-75
2022/07/23 00:25:42;;;;;;;490.93;445.20;;;;;;;25.83;58.14;99679.72;286305;34;1221;-75
2022/07/23 00:25:52;;;;;;;493.13;447.40;;;;;;;25.83;58.12;99675.22;280662;34;6737;-75
2022/07/23 00:28:06;;;;;;;461.63;412.85;;;;;;;25.87;57.27;99681.09;2501023;27;20486;-75
2022/07/23 00:28:16;;;;;;;496.73;450.83;;;;;;;25.85;57.38;99688.47;355883;27;1875;-75
2022/07/23 00:28:27;;;;;;;499.42;453.48;;;;;;;25.81;57.34;99682.56;353121;28;954;-75
2022/07/23 00:28:37;;;;;;;499.33;453.50;;;;;;;25.79;57.55;99673.00;351769;28;966;-75
2022/07/23 00:28:48;;;;;;;500.73;454.97;;;;;;;25.76;57.56;99686.72;348944;28;880;-75
2022/07/23 00:28:58;;;;;;;498.73;453.05;;;;;;;25.79;57.44;99686.41;347424;28;1340;-75
2022/07/23 00:29:08;;;;;;;498.67;452.90;;;;;;;25.78;57.52;99682.03;348829;28;1176;-75
2022/07/23 00:29:19;;;;;;;496.92;451.27;;;;;;;25.74;57.36;99676.16;347485;28;1125;-75
2022/07/23 00:29:29;;;;;;;495.40;449.80;;;;;;;25.73;57.59;99684.34;347499;28;871;-75
2022/07/23 00:29:39;;;;;;;498.20;452.47;;;;;;;25.72;57.56;99677.31;347412;28;1293;-75
2022/07/23 00:29:50;;;;;;;501.05;455.25;;;;;;;25.70;57.52;99679.31;350434;28;1413;-75
2022/07/23 00:30:00;;;;;;;502.97;457.00;;;;;;;25.68;57.50;99676.78;351099;28;2040;-75
2022/07/23 00:30:11;;;;;;;498.02;452.35;;;;;;;25.67;58.03;99684.97;348766;28;977;-75
2022/07/23 00:30:22;;;;;;;488.13;442.67;;;;;;;25.66;57.86;99681.47;350312;28;1157;-75
2022/07/23 00:30:32;;;;;;;482.43;436.93;;;;;;;25.64;57.66;99680.78;348844;28;880;-75
2022/07/23 00:30:43;;;;;;;486.90;441.23;;;;;;;25.66;57.77;99686.81;347358;28;2034;-75
2022/07/23 00:30:53;;;;;;;483.93;438.33;;;;;;;25.65;57.90;99681.63;345978;28;901;-75
2022/07/23 00:31:04;;;;;;;492.90;447.17;;;;;;;25.66;57.93;99684.13;347384;28;1332;-75
2022/07/23 00:31:15;;;;;;;492.53;446.50;;;;;;;25.67;57.74;99680.47;348694;28;1622;-75
2022/07/23 00:31:25;;;;;;;497.42;451.33;;;;;;;25.69;57.55;99682.97;348804;28;860;-75
2022/07/23 00:31:36;;;;;;;495.40;449.23;;;;;;;25.70;57.13;99679.31;347499;28;833;-75
2022/07/23 00:31:46;;;;;;;493.13;447.33;;;;;;;25.71;57.63;99679.16;346287;28;1240;-75
2022/07/23 00:31:56;;;;;;;498.75;453.10;;;;;;;25.72;57.83;99688.88;345120;28;1357;-75
2022/07/23 00:32:07;;;;;;;494.53;449.23;;;;;;;25.70;57.45;99679.31;347964;28;3789;-74
2022/07/23 00:32:17;;;;;;;493.47;448.17;;;;;;;25.70;57.63;99674.78;345239;28;4458;-75
2022/07/23 00:32:28;;;;;;;487.40;442.13;;;;;;;25.68;57.51;99686.66;347576;28;2557;-75
2022/07/23 00:32:48;;;;;;;495.03;449.37;;;;;;;25.65;57.53;99684.28;344469;28;2598;-75
2022/07/23 00:33:00;;;;;;;500.65;455.08;;;;;;;25.65;57.51;99678.94;346581;28;1326;-75
2022/07/23 00:33:11;;;;;;;496.67;451.02;;;;;;;25.64;57.60;99683.44;346069;28;1505;-76
2022/07/23 00:33:21;;;;;;;498.63;452.77;;;;;;;25.67;57.62;99684.97;345958;28;1798;-75
2022/07/23 00:33:32;;;;;;;494.70;449.15;;;;;;;25.67;57.57;99674.25;346115;28;856;-74
2022/07/23 00:33:42;;;;;;;501.47;455.53;;;;;;;25.68;57.30;99681.31;345870;28;1341;-74
2022/07/23 00:33:56;;;;;;;499.33;453.10;;;;;;;25.70;57.62;99681.97;343415;28;1300;-74
2022/07/23 00:34:06;;;;;;;500.38;454.33;;;;;;;25.70;57.18;99680.16;342155;28;1045;-74
2022/07/23 00:34:17;;;;;;;494.07;448.43;;;;;;;25.71;57.21;99681.84;340550;29;1061;-74
2022/07/23 00:34:27;;;;;;;485.33;439.90;;;;;;;25.71;57.01;99681.00;339373;29;1240;-74
2022/07/23 00:34:38;;;;;;;489.53;443.90;;;;;;;25.71;57.44;99681.00;338060;29;1336;-74
2022/07/23 00:34:48;;;;;;;493.73;447.95;;;;;;;25.72;57.11;99677.31;338142;29;1988;-74
2022/07/23 00:34:58;;;;;;;502.17;456.23;;;;;;;25.71;57.03;99675.63;338361;29;2082;-75
2022/07/23 00:35:09;;;;;;;493.67;447.97;;;;;;;25.72;57.32;99674.63;338084;29;1316;-75
2022/07/23 00:35:20;;;;;;;488.25;442.67;;;;;;;25.70;57.26;99679.31;338103;29;902;-75
2022/07/23 00:35:35;;;;;;;491.17;445.58;;;;;;;25.70;57.03;99681.97;338280;29;1502;-75
2022/07/23 00:35:45;;;;;;;501.85;455.85;;;;;;;25.69;57.07;99677.63;336086;29;1986;-75
2022/07/23 00:35:56;;;;;;;496.70;450.83;;;;;;;25.68;57.11;99683.97;336841;29;1337;-75
2022/07/23 00:36:06;;;;;;;494.88;449.00;;;;;;;25.68;57.36;99678.63;338411;29;931;-75
2022/07/23 00:36:17;;;;;;;490.97;445.47;;;;;;;25.67;57.48;99684.97;339875;28;1487;-75
2022/07/23 00:36:28;;;;;;;489.30;443.92;;;;;;;25.67;57.40;99682.31;338456;29;1345;-75
2022/07/23 00:36:38;;;;;;;489.25;443.85;;;;;;;25.68;57.21;99675.94;339508;29;948;-75
2022/07/23 00:36:49;;;;;;;478.83;433.50;;;;;;;25.65;57.16;99681.63;340184;29;1921;-75
2022/07/23 00:36:59;;;;;;;471.90;426.63;;;;;;;25.65;57.22;99679.78;341686;28;1968;-75
2022/07/23 00:37:10;;;;;;;464.90;419.45;;;;;;;25.65;57.14;99676.25;340076;29;1430;-75
2022/07/23 00:37:20;;;;;;;468.40;422.80;;;;;;;25.62;57.08;99682.75;333975;29;1215;-75
2022/07/23 00:37:30;;;;;;;471.97;426.47;;;;;;;25.60;57.49;99683.91;334976;29;883;-75
2022/07/23 00:37:41;;;;;;;475.42;430.15;;;;;;;25.61;57.57;99680.22;336648;29;922;-74
2022/07/23 00:37:52;;;;;;;477.47;431.97;;;;;;;25.59;57.45;99683.06;336571;29;877;-74
2022/07/23 00:38:02;;;;;;;479.75;434.02;;;;;;;25.57;57.44;99678.84;340038;29;1416;-74
2022/07/23 00:38:13;;;;;;;480.73;434.63;;;;;;;25.55;57.37;99680.88;336069;29;1667;-74
2022/07/23 00:38:23;;;;;;;479.90;434.03;;;;;;;25.54;57.61;99680.03;335551;29;917;-75
2022/07/23 00:38:34;;;;;;;480.77;434.80;;;;;;;25.53;57.49;99681.88;333046;29;1910;-75
2022/07/23 00:38:44;;;;;;;485.90;440.03;;;;;;;25.53;57.58;99679.19;334293;29;2237;-75
2022/07/23 00:38:55;;;;;;;494.03;448.07;;;;;;;25.52;57.31;99677.50;335612;29;919;-75
2022/07/23 00:39:05;;;;;;;497.23;451.40;;;;;;;25.52;57.40;99672.13;333024;29;877;-75
2022/07/23 00:39:16;;;;;;;495.67;450.08;;;;;;;25.51;57.27;99680.34;332915;29;1582;-75
2022/07/23 00:39:26;;;;;;;495.53;449.83;;;;;;;25.53;57.43;99684.53;328910;29;1234;-75
2022/07/23 00:39:37;;;;;;;492.88;447.05;;;;;;;25.55;57.12;99686.22;328134;30;930;-75
2022/07/23 00:39:47;;;;;;;493.53;447.43;;;;;;;25.55;56.98;99678.19;328590;30;1584;-74
2022/07/23 00:39:57;;;;;;;495.60;449.33;;;;;;;25.57;57.25;99685.03;329296;29;1907;-74
2022/07/23 00:40:09;;;;;;;502.53;456.17;;;;;;;25.56;57.35;99682.56;328029;30;974;-74
2022/07/23 00:40:19;;;;;;;501.70;455.50;;;;;;;25.55;57.08;99678.19;327401;30;3277;-74
2022/07/23 00:40:29;;;;;;;495.63;449.60;;;;;;;25.56;57.25;99677.19;323972;30;2371;-74
2022/07/23 00:40:40;;;;;;;490.77;444.90;;;;;;;25.56;57.26;99677.19;323958;30;2485;-74
2022/07/23 00:40:51;;;;;;;491.45;445.58;;;;;;;25.55;56.77;99681.72;326548;30;1906;-74
2022/07/23 00:41:01;;;;;;;501.50;455.43;;;;;;;25.56;57.14;99682.56;323255;30;2520;-74
2022/07/23 00:41:11;;;;;;;503.20;457.17;;;;;;;25.55;57.27;99681.72;321715;30;2574;-74
2022/07/23 00:41:22;;;;;;;507.97;461.93;;;;;;;25.54;57.01;99685.38;317928;30;4740;-74
2022/07/23 00:41:32;;;;;;;499.40;453.52;;;;;;;25.50;57.05;99678.66;318353;30;2867;-74
2022/07/23 00:41:43;;;;;;;501.40;455.17;;;;;;;25.46;57.02;99683.47;319821;30;3436;-74
2022/07/23 00:41:53;;;;;;;497.85;451.73;;;;;;;25.45;57.11;99687.16;316828;31;2154;-75
2022/07/23 00:42:04;;;;;;;496.17;450.13;;;;;;;25.45;57.15;99680.97;315790;31;3156;-75
2022/07/23 00:42:14;;;;;;;491.80;446.07;;;;;;;25.44;57.03;99685.47;317428;30;2555;-75
2022/07/23 00:42:24;;;;;;;490.63;444.90;;;;;;;25.43;57.21;99678.44;316282;31;845;-75
2022/07/23 00:42:35;;;;;;;503.17;457.03;;;;;;;25.44;57.02;99680.13;312838;31;1312;-75
2022/07/23 00:42:45;;;;;;;504.88;458.55;;;;;;;25.47;57.00;99681.66;313933;31;3377;-75
2022/07/23 00:42:56;;;;;;;505.03;458.60;;;;;;;25.46;56.75;99680.81;314076;31;3578;-75
2022/07/23 00:43:06;;;;;;;490.93;444.77;;;;;;;25.46;56.97;99678.13;316863;31;1320;-75
2022/07/23 00:43:18;;;;;;;491.53;445.33;;;;;;;25.48;56.83;99684.16;315377;31;3250;-75
2022/07/23 00:43:28;;;;;;;501.10;454.67;;;;;;;25.48;56.65;99676.13;315419;30;3055;-75
2022/07/23 00:43:38;;;;;;;495.67;449.47;;;;;;;25.47;56.79;99681.66;316805;31;1829;-74
2022/07/23 00:43:49;;;;;;;498.40;452.00;;;;;;;25.44;56.94;99685.47;315796;31;2439;-74
2022/07/23 00:44:19;;;;;;;498.08;451.80;;;;;;;25.39;57.15;99682.41;311750;31;2051;-74
2022/07/23 00:44:30;;;;;;;500.50;454.77;;;;;;;25.39;56.95;99682.41;309914;31;3633;-74
2022/07/23 00:44:41;;;;;;;499.48;453.67;;;;;;;25.36;57.28;99682.72;306365;32;4349;-75
2022/07/23 00:44:51;;;;;;;512.35;466.08;;;;;;;25.37;57.02;99679.06;304056;32;892;-75
2022/07/23 00:45:01;;;;;;;512.77;466.53;;;;;;;25.37;56.83;99676.38;301617;32;4520;-75
2022/07/23 00:45:12;;;;;;;513.50;467.20;;;;;;;25.40;56.83;99680.59;299131;32;4518;-75
2022/07/23 00:45:23;;;;;;;505.97;459.80;;;;;;;25.40;56.86;99678.75;300416;32;2081;-75
2022/07/23 00:45:33;;;;;;;512.47;466.13;;;;;;;25.43;57.08;99683.78;302967;32;4459;-75
2022/07/23 00:45:43;;;;;;;513.43;466.97;;;;;;;25.45;56.82;99681.81;300984;32;4488;-75
2022/07/23 00:45:54;;;;;;;511.55;465.08;;;;;;;25.46;56.71;99683.47;298572;33;813;-75
2022/07/23 00:46:04;;;;;;;511.47;464.97;;;;;;;25.46;56.59;99680.81;299536;32;3411;-75
2022/07/23 00:46:21;;;;;;;514.67;468.30;;;;;;;25.40;57.00;99678.75;296229;33;3230;-75
2022/07/23 00:46:32;;;;;;;513.40;467.10;;;;;;;25.39;57.17;99684.25;292996;33;4379;-75
2022/07/23 00:46:46;;;;;;;515.70;469.45;;;;;;;25.41;57.19;99680.44;291596;33;5366;-75
2022/07/23 00:46:57;;;;;;;516.78;470.58;;;;;;;25.43;56.92;99678.44;293413;33;5490;-75
2022/07/23 00:47:08;;;;;;;517.30;470.95;;;;;;;25.44;57.00;99688.16;297026;33;972;-75
2022/07/23 00:47:18;;;;;;;513.60;467.23;;;;;;;25.43;57.01;99683.78;291172;33;6981;-76
2022/07/23 00:47:28;;;;;;;511.97;465.77;;;;;;;25.44;56.86;99684.63;289422;33;6091;-75
2022/07/23 00:47:39;;;;;;;505.73;459.58;;;;;;;25.43;56.53;99681.13;290090;34;1265;-75
2022/07/23 00:47:49;;;;;;;505.33;459.23;;;;;;;25.44;56.88;99679.28;288027;33;6213;-74
2022/07/23 00:48:00;;;;;;;497.98;451.83;;;;;;;25.43;57.00;99683.78;289564;33;6135;-74
2022/07/23 00:48:10;;;;;;;503.73;457.55;;;;;;;25.41;56.89;99676.91;290347;33;5012;-74
2022/07/23 00:48:21;;;;;;;514.50;467.93;;;;;;;25.42;57.10;99681.28;292992;33;1186;-74
2022/07/23 00:48:31;;;;;;;518.90;472.37;;;;;;;25.41;56.85;99677.75;295316;33;4792;-74
2022/07/23 00:48:42;;;;;;;517.40;471.00;;;;;;;25.42;57.17;99681.28;295630;33;5736;-74
2022/07/23 00:48:52;;;;;;;512.07;465.93;;;;;;;25.38;57.22;99679.91;295002;33;980;-74
2022/07/23 00:49:02;;;;;;;515.22;469.02;;;;;;;25.40;57.04;99678.75;292876;33;7103;-74
2022/07/23 00:49:13;;;;;;;521.30;474.80;;;;;;;25.40;56.94;99686.78;292280;33;7934;-74
2022/07/23 00:49:24;;;;;;;521.17;474.67;;;;;;;25.42;57.06;99690.16;295020;33;944;-74
2022/07/23 00:49:35;;;;;;;519.85;473.38;;;;;;;25.43;56.95;99683.78;289610;33;8869;-74
2022/07/23 00:49:45;;;;;;;514.67;468.35;;;;;;;25.41;57.10;99683.09;288867;34;7841;-74
2022/07/23 00:49:56;;;;;;;515.47;469.20;;;;;;;25.43;56.97;99683.78;285739;34;8476;-74
2022/07/23 00:50:07;;;;;;;516.30;469.97;;;;;;;25.44;57.16;99685.47;284539;34;817;-74
2022/07/23 00:50:17;;;;;;;523.53;477.00;;;;;;;25.42;57.05;99682.13;283846;34;8674;-75
2022/07/23 00:50:28;;;;;;;520.00;473.53;;;;;;;25.42;56.90;99683.94;283241;34;6736;-75
2022/07/23 00:50:39;;;;;;;514.45;468.23;;;;;;;25.41;57.11;99688.47;282775;34;5258;-75
2022/07/23 00:50:49;;;;;;;511.93;465.73;;;;;;;25.40;56.89;99684.09;282920;34;7097;-75
2022/07/23 00:53:03;;;;;;;473.92;426.61;;;;;;;25.32;57.10;99686.72;2496574;27;20795;-74
2022/07/23 00:53:14;;;;;;;518.28;471.83;;;;;;;25.32;57.15;99684.03;351483;28;1329;-74
2022/07/23 00:53:24;;;;;;;516.10;469.60;;;;;;;25.31;57.13;99689.56;348895;28;825;-74
2022/07/23 00:53:34;;;;;;;515.00;468.42;;;;;;;25.31;57.40;99689.56;350188;28;1239;-75
2022/07/23 00:53:45;;;;;;;509.70;463.50;;;;;;;25.30;57.36;99688.72;347392;28;1355;-75
2022/07/23 00:53:55;;;;;;;512.93;466.80;;;;;;;25.30;57.14;99691.38;347116;28;1801;-75
2022/07/23 00:54:06;;;;;;;512.03;465.88;;;;;;;25.32;57.30;99685.88;348690;28;1865;-75
2022/07/23 00:54:17;;;;;;;514.07;467.77;;;;;;;25.30;57.30;99688.72;348696;28;1755;-75
2022/07/23 00:54:27;;;;;;;504.58;458.38;;;;;;;25.32;57.51;99691.22;350234;28;824;-75
2022/07/23 00:54:38;;;;;;;504.52;458.42;;;;;;;25.33;57.24;99696.44;349079;28;1207;-75
2022/07/23 00:54:48;;;;;;;508.20;462.05;;;;;;;25.35;57.19;99693.59;350258;28;1275;-75
2022/07/23 00:54:59;;;;;;;517.97;471.63;;;;;;;25.36;56.92;99689.94;348777;28;879;-75
2022/07/23 00:55:10;;;;;;;512.38;466.25;;;;;;;25.36;56.97;99688.09;350317;28;969;-75